sensor_id;sensor_type;location;lat;lon;timestamp;P1;durP1;ratioP1;P2;durP2;ratioP2
22070;SDS011;11200;51.488;6.668;2022-10-17T00:01:35;2.60;;;2.40;;
22070;SDS011;11200;51.488;6.668;2022-10-17T00:04:01;2.65;;;2.45;;
22070;SDS011;11200;51.488;6.668;2022-10-17T00:06:27;2.65;;;2.35;;
22070;SDS011;11200;51.488;6.668;2022-10-17T00:08:52;2.85;;;2.55;;
22070;SDS011;11200;51.488;6.668;2022-10-17T00:11:19;2.65;;;2.42;;
22070;SDS011;11200;51.488;6.668;2022-10-17T00:13:46;3.42;;;2.60;;
22070;SDS011;11200;51.488;6.668;2022-10-17T00:16:13;2.55;;;2.22;;
22070;SDS011;11200;51.488;6.668;2022-10-17T00:18:40;2.88;;;2.67;;
22070;SDS011;11200;51.488;6.668;2022-10-17T00:21:10;2.38;;;2.17;;
22070;SDS011;11200;51.488;6.668;2022-10-17T00:23:39;2.75;;;2.55;;
22070;SDS011;11200;51.488;6.668;2022-10-17T00:26:05;2.55;;;2.35;;
22070;SDS011;11200;51.488;6.668;2022-10-17T00:28:31;2.47;;;2.28;;
22070;SDS011;11200;51.488;6.668;2022-10-17T00:30:57;2.28;;;2.08;;
22070;SDS011;11200;51.488;6.668;2022-10-17T00:33:28;3.20;;;2.45;;
22070;SDS011;11200;51.488;6.668;2022-10-17T00:36:01;2.78;;;2.28;;
22070;SDS011;11200;51.488;6.668;2022-10-17T00:38:27;3.35;;;2.60;;
22070;SDS011;11200;51.488;6.668;2022-10-17T00:40:52;2.45;;;2.25;;
22070;SDS011;11200;51.488;6.668;2022-10-17T00:43:18;3.00;;;2.50;;
22070;SDS011;11200;51.488;6.668;2022-10-17T00:45:43;2.65;;;2.45;;
22070;SDS011;11200;51.488;6.668;2022-10-17T00:48:09;2.60;;;2.40;;
22070;SDS011;11200;51.488;6.668;2022-10-17T00:50:36;3.08;;;2.33;;
22070;SDS011;11200;51.488;6.668;2022-10-17T00:53:04;2.78;;;2.40;;
22070;SDS011;11200;51.488;6.668;2022-10-17T00:55:32;2.90;;;2.50;;
22070;SDS011;11200;51.488;6.668;2022-10-17T00:58:02;3.50;;;2.63;;
22070;SDS011;11200;51.488;6.668;2022-10-17T01:00:28;2.58;;;2.38;;
22070;SDS011;11200;51.488;6.668;2022-10-17T01:02:54;2.78;;;2.30;;
22070;SDS011;11200;51.488;6.668;2022-10-17T01:05:20;2.67;;;2.45;;
22070;SDS011;11200;51.488;6.668;2022-10-17T01:07:46;2.72;;;2.42;;
22070;SDS011;11200;51.488;6.668;2022-10-17T01:10:14;2.72;;;2.53;;
22070;SDS011;11200;51.488;6.668;2022-10-17T01:21:07;3.28;;;2.97;;
22070;SDS011;11200;51.488;6.668;2022-10-17T01:23:47;3.08;;;2.78;;
22070;SDS011;11200;51.488;6.668;2022-10-17T01:26:41;2.58;;;2.38;;
22070;SDS011;11200;51.488;6.668;2022-10-17T01:34:52;4.15;;;3.00;;
22070;SDS011;11200;51.488;6.668;2022-10-17T01:40:06;3.85;;;3.03;;
22070;SDS011;11200;51.488;6.668;2022-10-17T01:42:59;3.22;;;2.92;;
22070;SDS011;11200;51.488;6.668;2022-10-17T01:45:53;3.13;;;2.83;;
22070;SDS011;11200;51.488;6.668;2022-10-17T01:48:25;3.10;;;2.80;;
22070;SDS011;11200;51.488;6.668;2022-10-17T01:51:20;4.00;;;2.80;;
22070;SDS011;11200;51.488;6.668;2022-10-17T01:53:57;5.05;;;3.28;;
22070;SDS011;11200;51.488;6.668;2022-10-17T01:56:27;3.63;;;3.13;;
22070;SDS011;11200;51.488;6.668;2022-10-17T01:58:57;3.15;;;2.85;;
22070;SDS011;11200;51.488;6.668;2022-10-17T02:01:27;3.40;;;3.10;;
22070;SDS011;11200;51.488;6.668;2022-10-17T02:03:54;3.40;;;3.10;;
22070;SDS011;11200;51.488;6.668;2022-10-17T02:06:21;2.95;;;2.75;;
22070;SDS011;11200;51.488;6.668;2022-10-17T02:08:48;3.15;;;2.72;;
22070;SDS011;11200;51.488;6.668;2022-10-17T02:21:30;4.15;;;3.15;;
22070;SDS011;11200;51.488;6.668;2022-10-17T02:24:06;3.80;;;3.50;;
22070;SDS011;11200;51.488;6.668;2022-10-17T02:26:38;3.65;;;3.20;;
22070;SDS011;11200;51.488;6.668;2022-10-17T02:29:14;4.25;;;3.28;;
22070;SDS011;11200;51.488;6.668;2022-10-17T02:31:44;3.38;;;3.08;;
22070;SDS011;11200;51.488;6.668;2022-10-17T02:36:59;4.07;;;3.40;;
22070;SDS011;11200;51.488;6.668;2022-10-17T02:39:27;3.70;;;3.40;;
22070;SDS011;11200;51.488;6.668;2022-10-17T02:41:54;4.00;;;3.60;;
22070;SDS011;11200;51.488;6.668;2022-10-17T02:44:22;3.92;;;3.35;;
22070;SDS011;11200;51.488;6.668;2022-10-17T02:46:53;3.70;;;3.40;;
22070;SDS011;11200;51.488;6.668;2022-10-17T02:49:27;3.72;;;3.42;;
22070;SDS011;11200;51.488;6.668;2022-10-17T02:57:35;5.28;;;3.60;;
22070;SDS011;11200;51.488;6.668;2022-10-17T03:00:12;3.80;;;3.40;;
22070;SDS011;11200;51.488;6.668;2022-10-17T03:02:40;4.55;;;3.63;;
22070;SDS011;11200;51.488;6.668;2022-10-17T03:05:18;3.60;;;3.30;;
22070;SDS011;11200;51.488;6.668;2022-10-17T03:07:45;3.97;;;3.58;;
22070;SDS011;11200;51.488;6.668;2022-10-17T03:10:11;3.90;;;3.50;;
22070;SDS011;11200;51.488;6.668;2022-10-17T03:12:36;3.70;;;3.40;;
22070;SDS011;11200;51.488;6.668;2022-10-17T03:15:02;4.10;;;3.40;;
22070;SDS011;11200;51.488;6.668;2022-10-17T03:17:29;5.15;;;3.70;;
22070;SDS011;11200;51.488;6.668;2022-10-17T03:19:55;4.35;;;3.70;;
22070;SDS011;11200;51.488;6.668;2022-10-17T03:22:20;4.07;;;3.55;;
22070;SDS011;11200;51.488;6.668;2022-10-17T03:24:46;5.15;;;3.55;;
22070;SDS011;11200;51.488;6.668;2022-10-17T03:27:12;3.55;;;3.25;;
22070;SDS011;11200;51.488;6.668;2022-10-17T03:29:37;3.85;;;3.45;;
22070;SDS011;11200;51.488;6.668;2022-10-17T03:32:03;4.03;;;3.38;;
22070;SDS011;11200;51.488;6.668;2022-10-17T03:34:29;4.65;;;3.60;;
22070;SDS011;11200;51.488;6.668;2022-10-17T03:36:55;4.68;;;3.90;;
22070;SDS011;11200;51.488;6.668;2022-10-17T03:39:20;4.18;;;3.78;;
22070;SDS011;11200;51.488;6.668;2022-10-17T03:41:46;4.15;;;3.58;;
22070;SDS011;11200;51.488;6.668;2022-10-17T03:44:11;5.40;;;4.00;;
22070;SDS011;11200;51.488;6.668;2022-10-17T03:46:37;4.13;;;3.72;;
22070;SDS011;11200;51.488;6.668;2022-10-17T03:49:02;4.05;;;3.65;;
22070;SDS011;11200;51.488;6.668;2022-10-17T03:51:28;4.13;;;3.72;;
22070;SDS011;11200;51.488;6.668;2022-10-17T03:53:54;4.05;;;3.65;;
22070;SDS011;11200;51.488;6.668;2022-10-17T03:56:21;4.18;;;3.80;;
22070;SDS011;11200;51.488;6.668;2022-10-17T03:58:48;4.65;;;3.75;;
22070;SDS011;11200;51.488;6.668;2022-10-17T04:01:14;4.10;;;3.80;;
22070;SDS011;11200;51.488;6.668;2022-10-17T04:03:41;3.67;;;3.22;;
22070;SDS011;11200;51.488;6.668;2022-10-17T04:06:07;4.10;;;3.67;;
22070;SDS011;11200;51.488;6.668;2022-10-17T04:08:34;4.13;;;3.72;;
22070;SDS011;11200;51.488;6.668;2022-10-17T04:11:00;4.00;;;3.60;;
22070;SDS011;11200;51.488;6.668;2022-10-17T04:13:28;5.63;;;3.58;;
22070;SDS011;11200;51.488;6.668;2022-10-17T04:15:54;3.90;;;3.58;;
22070;SDS011;11200;51.488;6.668;2022-10-17T04:18:42;5.43;;;3.80;;
22070;SDS011;11200;51.488;6.668;2022-10-17T04:21:08;4.88;;;3.90;;
22070;SDS011;11200;51.488;6.668;2022-10-17T04:23:34;4.28;;;3.88;;
22070;SDS011;11200;51.488;6.668;2022-10-17T04:26:00;4.22;;;3.70;;
22070;SDS011;11200;51.488;6.668;2022-10-17T04:28:27;4.93;;;4.15;;
22070;SDS011;11200;51.488;6.668;2022-10-17T04:31:03;3.83;;;3.53;;
22070;SDS011;11200;51.488;6.668;2022-10-17T04:33:31;4.15;;;3.75;;
22070;SDS011;11200;51.488;6.668;2022-10-17T04:36:01;4.43;;;3.83;;
22070;SDS011;11200;51.488;6.668;2022-10-17T04:38:28;4.47;;;3.90;;
22070;SDS011;11200;51.488;6.668;2022-10-17T04:41:00;4.80;;;4.30;;
22070;SDS011;11200;51.488;6.668;2022-10-17T04:43:31;4.32;;;3.92;;
22070;SDS011;11200;51.488;6.668;2022-10-17T04:46:02;4.30;;;3.70;;
22070;SDS011;11200;51.488;6.668;2022-10-17T04:48:29;6.45;;;4.13;;
22070;SDS011;11200;51.488;6.668;2022-10-17T04:50:56;4.95;;;4.18;;
22070;SDS011;11200;51.488;6.668;2022-10-17T04:53:26;4.88;;;4.15;;
22070;SDS011;11200;51.488;6.668;2022-10-17T04:55:52;5.05;;;4.07;;
22070;SDS011;11200;51.488;6.668;2022-10-17T04:58:18;5.47;;;4.15;;
22070;SDS011;11200;51.488;6.668;2022-10-17T05:00:44;4.45;;;3.85;;
22070;SDS011;11200;51.488;6.668;2022-10-17T05:03:10;5.53;;;3.97;;
22070;SDS011;11200;51.488;6.668;2022-10-17T05:05:40;5.20;;;4.18;;
22070;SDS011;11200;51.488;6.668;2022-10-17T05:08:07;5.00;;;4.07;;
22070;SDS011;11200;51.488;6.668;2022-10-17T05:10:38;4.80;;;4.22;;
22070;SDS011;11200;51.488;6.668;2022-10-17T05:13:11;3.95;;;3.55;;
22070;SDS011;11200;51.488;6.668;2022-10-17T05:15:39;4.03;;;3.67;;
22070;SDS011;11200;51.488;6.668;2022-10-17T05:18:05;3.95;;;3.65;;
22070;SDS011;11200;51.488;6.668;2022-10-17T05:20:33;5.85;;;4.05;;
22070;SDS011;11200;51.488;6.668;2022-10-17T05:22:59;5.13;;;4.18;;
22070;SDS011;11200;51.488;6.668;2022-10-17T05:25:25;5.80;;;4.13;;
22070;SDS011;11200;51.488;6.668;2022-10-17T05:27:50;4.30;;;3.90;;
22070;SDS011;11200;51.488;6.668;2022-10-17T05:30:17;4.85;;;4.10;;
22070;SDS011;11200;51.488;6.668;2022-10-17T05:32:43;4.55;;;4.15;;
22070;SDS011;11200;51.488;6.668;2022-10-17T05:35:09;5.65;;;4.07;;
22070;SDS011;11200;51.488;6.668;2022-10-17T05:37:34;4.35;;;3.95;;
22070;SDS011;11200;51.488;6.668;2022-10-17T05:40:00;5.32;;;4.20;;
22070;SDS011;11200;51.488;6.668;2022-10-17T05:42:26;4.22;;;3.83;;
22070;SDS011;11200;51.488;6.668;2022-10-17T05:44:51;5.22;;;4.45;;
22070;SDS011;11200;51.488;6.668;2022-10-17T05:47:17;5.88;;;3.88;;
22070;SDS011;11200;51.488;6.668;2022-10-17T05:49:43;4.35;;;3.90;;
22070;SDS011;11200;51.488;6.668;2022-10-17T05:52:08;4.22;;;3.83;;
22070;SDS011;11200;51.488;6.668;2022-10-17T05:54:34;5.80;;;4.50;;
22070;SDS011;11200;51.488;6.668;2022-10-17T05:56:59;4.63;;;4.22;;
22070;SDS011;11200;51.488;6.668;2022-10-17T05:59:25;5.30;;;4.13;;
22070;SDS011;11200;51.488;6.668;2022-10-17T06:01:51;4.97;;;4.18;;
22070;SDS011;11200;51.488;6.668;2022-10-17T06:04:17;4.82;;;4.25;;
22070;SDS011;11200;51.488;6.668;2022-10-17T06:06:43;5.40;;;4.13;;
22070;SDS011;11200;51.488;6.668;2022-10-17T06:09:08;5.55;;;4.28;;
22070;SDS011;11200;51.488;6.668;2022-10-17T06:11:34;5.28;;;4.18;;
22070;SDS011;11200;51.488;6.668;2022-10-17T06:14:00;4.68;;;4.28;;
22070;SDS011;11200;51.488;6.668;2022-10-17T06:16:27;4.68;;;3.95;;
22070;SDS011;11200;51.488;6.668;2022-10-17T06:18:52;4.60;;;4.20;;
22070;SDS011;11200;51.488;6.668;2022-10-17T06:21:19;4.47;;;4.07;;
22070;SDS011;11200;51.488;6.668;2022-10-17T06:23:47;6.47;;;4.22;;
22070;SDS011;11200;51.488;6.668;2022-10-17T06:26:12;8.07;;;4.55;;
22070;SDS011;11200;51.488;6.668;2022-10-17T06:28:38;5.03;;;4.47;;
22070;SDS011;11200;51.488;6.668;2022-10-17T06:31:04;5.65;;;4.30;;
22070;SDS011;11200;51.488;6.668;2022-10-17T06:33:34;5.97;;;4.00;;
22070;SDS011;11200;51.488;6.668;2022-10-17T06:35:59;5.38;;;4.07;;
22070;SDS011;11200;51.488;6.668;2022-10-17T06:38:26;4.75;;;4.03;;
22070;SDS011;11200;51.488;6.668;2022-10-17T06:40:51;4.70;;;4.30;;
22070;SDS011;11200;51.488;6.668;2022-10-17T06:43:18;4.85;;;4.22;;
22070;SDS011;11200;51.488;6.668;2022-10-17T06:45:44;6.53;;;4.05;;
22070;SDS011;11200;51.488;6.668;2022-10-17T06:48:11;4.88;;;4.05;;
22070;SDS011;11200;51.488;6.668;2022-10-17T06:50:37;5.78;;;4.10;;
22070;SDS011;11200;51.488;6.668;2022-10-17T06:53:02;5.25;;;3.90;;
22070;SDS011;11200;51.488;6.668;2022-10-17T06:55:29;4.60;;;4.20;;
22070;SDS011;11200;51.488;6.668;2022-10-17T06:57:56;5.40;;;4.50;;
22070;SDS011;11200;51.488;6.668;2022-10-17T07:00:21;6.05;;;4.10;;
22070;SDS011;11200;51.488;6.668;2022-10-17T07:02:47;4.30;;;3.90;;
22070;SDS011;11200;51.488;6.668;2022-10-17T07:05:13;6.03;;;4.30;;
22070;SDS011;11200;51.488;6.668;2022-10-17T07:07:39;4.78;;;4.32;;
22070;SDS011;11200;51.488;6.668;2022-10-17T07:10:05;5.38;;;4.20;;
22070;SDS011;11200;51.488;6.668;2022-10-17T07:12:34;5.10;;;4.50;;
22070;SDS011;11200;51.488;6.668;2022-10-17T07:15:00;5.03;;;4.22;;
22070;SDS011;11200;51.488;6.668;2022-10-17T07:17:26;4.45;;;4.05;;
22070;SDS011;11200;51.488;6.668;2022-10-17T07:19:52;4.40;;;4.00;;
22070;SDS011;11200;51.488;6.668;2022-10-17T07:22:17;5.00;;;4.47;;
22070;SDS011;11200;51.488;6.668;2022-10-17T07:24:43;6.05;;;4.20;;
22070;SDS011;11200;51.488;6.668;2022-10-17T07:27:08;4.75;;;4.25;;
22070;SDS011;11200;51.488;6.668;2022-10-17T07:29:34;4.35;;;3.95;;
22070;SDS011;11200;51.488;6.668;2022-10-17T07:31:59;5.18;;;4.60;;
22070;SDS011;11200;51.488;6.668;2022-10-17T07:34:27;5.28;;;4.43;;
22070;SDS011;11200;51.488;6.668;2022-10-17T07:36:55;4.93;;;4.40;;
22070;SDS011;11200;51.488;6.668;2022-10-17T07:39:21;5.00;;;3.97;;
22070;SDS011;11200;51.488;6.668;2022-10-17T07:41:47;5.65;;;4.00;;
22070;SDS011;11200;51.488;6.668;2022-10-17T07:44:14;6.20;;;4.28;;
22070;SDS011;11200;51.488;6.668;2022-10-17T07:46:40;5.05;;;4.53;;
22070;SDS011;11200;51.488;6.668;2022-10-17T07:49:05;5.30;;;4.18;;
22070;SDS011;11200;51.488;6.668;2022-10-17T07:51:31;4.75;;;4.05;;
22070;SDS011;11200;51.488;6.668;2022-10-17T07:53:57;5.20;;;4.40;;
22070;SDS011;11200;51.488;6.668;2022-10-17T07:56:23;6.10;;;4.40;;
22070;SDS011;11200;51.488;6.668;2022-10-17T07:58:49;4.55;;;4.10;;
22070;SDS011;11200;51.488;6.668;2022-10-17T08:01:16;5.97;;;4.30;;
22070;SDS011;11200;51.488;6.668;2022-10-17T08:03:45;5.35;;;4.30;;
22070;SDS011;11200;51.488;6.668;2022-10-17T08:06:13;9.13;;;4.75;;
22070;SDS011;11200;51.488;6.668;2022-10-17T08:08:39;4.75;;;3.97;;
22070;SDS011;11200;51.488;6.668;2022-10-17T08:11:06;5.22;;;4.00;;
22070;SDS011;11200;51.488;6.668;2022-10-17T08:13:34;4.80;;;4.30;;
22070;SDS011;11200;51.488;6.668;2022-10-17T08:16:01;4.90;;;4.30;;
22070;SDS011;11200;51.488;6.668;2022-10-17T08:18:28;10.73;;;4.53;;
22070;SDS011;11200;51.488;6.668;2022-10-17T08:20:54;4.90;;;4.40;;
22070;SDS011;11200;51.488;6.668;2022-10-17T08:23:24;5.15;;;4.53;;
22070;SDS011;11200;51.488;6.668;2022-10-17T08:25:49;6.57;;;4.63;;
22070;SDS011;11200;51.488;6.668;2022-10-17T08:28:15;6.78;;;4.68;;
22070;SDS011;11200;51.488;6.668;2022-10-17T08:30:40;5.63;;;4.60;;
22070;SDS011;11200;51.488;6.668;2022-10-17T08:33:06;5.32;;;4.75;;
22070;SDS011;11200;51.488;6.668;2022-10-17T08:35:32;4.72;;;4.32;;
22070;SDS011;11200;51.488;6.668;2022-10-17T08:37:58;4.70;;;4.28;;
22070;SDS011;11200;51.488;6.668;2022-10-17T08:40:26;5.88;;;4.63;;
22070;SDS011;11200;51.488;6.668;2022-10-17T08:45:59;5.88;;;4.43;;
22070;SDS011;11200;51.488;6.668;2022-10-17T08:48:28;6.03;;;4.35;;
22070;SDS011;11200;51.488;6.668;2022-10-17T08:51:11;5.10;;;4.57;;
22070;SDS011;11200;51.488;6.668;2022-10-17T08:53:50;6.15;;;4.15;;
22070;SDS011;11200;51.488;6.668;2022-10-17T08:56:32;4.55;;;4.13;;
22070;SDS011;11200;51.488;6.668;2022-10-17T08:59:10;5.05;;;4.32;;
22070;SDS011;11200;51.488;6.668;2022-10-17T09:02:09;5.57;;;4.22;;
22070;SDS011;11200;51.488;6.668;2022-10-17T09:04:53;5.47;;;4.20;;
22070;SDS011;11200;51.488;6.668;2022-10-17T09:07:42;5.65;;;4.60;;
22070;SDS011;11200;51.488;6.668;2022-10-17T09:18:31;7.35;;;4.82;;
22070;SDS011;11200;51.488;6.668;2022-10-17T09:21:14;5.25;;;4.40;;
22070;SDS011;11200;51.488;6.668;2022-10-17T09:23:53;6.45;;;4.43;;
22070;SDS011;11200;51.488;6.668;2022-10-17T09:26:27;4.47;;;3.92;;
22070;SDS011;11200;51.488;6.668;2022-10-17T09:28:54;4.88;;;4.28;;
22070;SDS011;11200;51.488;6.668;2022-10-17T09:31:57;5.30;;;4.00;;
22070;SDS011;11200;51.488;6.668;2022-10-17T09:34:47;5.05;;;4.05;;
22070;SDS011;11200;51.488;6.668;2022-10-17T09:37:13;4.97;;;3.80;;
22070;SDS011;11200;51.488;6.668;2022-10-17T09:39:41;5.13;;;4.00;;
22070;SDS011;11200;51.488;6.668;2022-10-17T09:42:09;4.50;;;4.07;;
22070;SDS011;11200;51.488;6.668;2022-10-17T09:44:46;5.40;;;4.20;;
22070;SDS011;11200;51.488;6.668;2022-10-17T09:47:24;4.50;;;4.10;;
22070;SDS011;11200;51.488;6.668;2022-10-17T09:49:56;5.20;;;3.90;;
22070;SDS011;11200;51.488;6.668;2022-10-17T09:52:37;4.28;;;3.72;;
22070;SDS011;11200;51.488;6.668;2022-10-17T09:55:16;5.28;;;4.10;;
22070;SDS011;11200;51.488;6.668;2022-10-17T09:57:55;5.22;;;3.85;;
22070;SDS011;11200;51.488;6.668;2022-10-17T10:00:57;4.32;;;3.88;;
22070;SDS011;11200;51.488;6.668;2022-10-17T10:08:29;4.53;;;3.83;;
22070;SDS011;11200;51.488;6.668;2022-10-17T10:11:01;4.72;;;4.20;;
22070;SDS011;11200;51.488;6.668;2022-10-17T10:13:32;4.60;;;4.18;;
22070;SDS011;11200;51.488;6.668;2022-10-17T10:16:22;5.05;;;3.70;;
22070;SDS011;11200;51.488;6.668;2022-10-17T10:18:54;4.10;;;3.70;;
22070;SDS011;11200;51.488;6.668;2022-10-17T10:21:20;4.28;;;3.88;;
22070;SDS011;11200;51.488;6.668;2022-10-17T10:26:45;4.43;;;4.03;;
22070;SDS011;11200;51.488;6.668;2022-10-17T10:31:46;4.20;;;3.80;;
22070;SDS011;11200;51.488;6.668;2022-10-17T10:34:21;4.43;;;4.03;;
22070;SDS011;11200;51.488;6.668;2022-10-17T10:36:51;4.60;;;4.03;;
22070;SDS011;11200;51.488;6.668;2022-10-17T10:39:28;4.60;;;4.10;;
22070;SDS011;11200;51.488;6.668;2022-10-17T10:41:58;5.47;;;4.10;;
22070;SDS011;11200;51.488;6.668;2022-10-17T10:44:26;5.45;;;4.38;;
22070;SDS011;11200;51.488;6.668;2022-10-17T10:47:07;4.90;;;4.47;;
22070;SDS011;11200;51.488;6.668;2022-10-17T10:49:39;4.80;;;4.30;;
22070;SDS011;11200;51.488;6.668;2022-10-17T10:52:06;4.72;;;4.18;;
22070;SDS011;11200;51.488;6.668;2022-10-17T10:54:36;4.78;;;3.88;;
22070;SDS011;11200;51.488;6.668;2022-10-17T10:57:06;5.60;;;3.78;;
22070;SDS011;11200;51.488;6.668;2022-10-17T10:59:53;3.97;;;3.67;;
22070;SDS011;11200;51.488;6.668;2022-10-17T11:02:34;4.53;;;4.13;;
22070;SDS011;11200;51.488;6.668;2022-10-17T11:05:16;4.68;;;3.90;;
22070;SDS011;11200;51.488;6.668;2022-10-17T11:13:04;4.90;;;4.18;;
22070;SDS011;11200;51.488;6.668;2022-10-17T11:15:48;4.55;;;3.92;;
22070;SDS011;11200;51.488;6.668;2022-10-17T11:21:23;4.85;;;3.78;;
22070;SDS011;11200;51.488;6.668;2022-10-17T11:24:13;4.10;;;3.78;;
22070;SDS011;11200;51.488;6.668;2022-10-17T11:26:55;5.82;;;3.80;;
22070;SDS011;11200;51.488;6.668;2022-10-17T11:29:33;5.15;;;3.72;;
22070;SDS011;11200;51.488;6.668;2022-10-17T11:32:04;5.03;;;3.90;;
22070;SDS011;11200;51.488;6.668;2022-10-17T11:34:40;4.40;;;4.00;;
22070;SDS011;11200;51.488;6.668;2022-10-17T11:37:12;5.78;;;3.72;;
22070;SDS011;11200;51.488;6.668;2022-10-17T11:39:54;4.63;;;3.75;;
22070;SDS011;11200;51.488;6.668;2022-10-17T11:42:26;3.90;;;3.60;;
22070;SDS011;11200;51.488;6.668;2022-10-17T11:45:01;4.60;;;4.20;;
22070;SDS011;11200;51.488;6.668;2022-10-17T11:52:48;5.47;;;4.18;;
22070;SDS011;11200;51.488;6.668;2022-10-17T11:55:21;4.07;;;3.78;;
22070;SDS011;11200;51.488;6.668;2022-10-17T12:09:43;4.40;;;4.00;;
22070;SDS011;11200;51.488;6.668;2022-10-17T12:12:27;5.03;;;4.10;;
22070;SDS011;11200;51.488;6.668;2022-10-17T12:14:56;4.68;;;3.88;;
22070;SDS011;11200;51.488;6.668;2022-10-17T12:17:59;4.70;;;4.20;;
22070;SDS011;11200;51.488;6.668;2022-10-17T12:20:34;4.40;;;4.00;;
22070;SDS011;11200;51.488;6.668;2022-10-17T12:25:36;4.28;;;3.88;;
22070;SDS011;11200;51.488;6.668;2022-10-17T12:33:56;4.10;;;3.70;;
22070;SDS011;11200;51.488;6.668;2022-10-17T12:44:50;5.32;;;4.15;;
22070;SDS011;11200;51.488;6.668;2022-10-17T12:52:05;4.30;;;3.90;;
22070;SDS011;11200;51.488;6.668;2022-10-17T12:54:52;5.55;;;4.20;;
22070;SDS011;11200;51.488;6.668;2022-10-17T13:02:46;4.85;;;3.97;;
22070;SDS011;11200;51.488;6.668;2022-10-17T13:05:23;4.45;;;3.92;;
22070;SDS011;11200;51.488;6.668;2022-10-17T13:08:00;5.13;;;4.50;;
22070;SDS011;11200;51.488;6.668;2022-10-17T13:10:32;5.72;;;3.88;;
22070;SDS011;11200;51.488;6.668;2022-10-17T13:13:10;4.60;;;4.20;;
22070;SDS011;11200;51.488;6.668;2022-10-17T13:15:57;4.18;;;3.78;;
22070;SDS011;11200;51.488;6.668;2022-10-17T13:18:24;7.60;;;4.20;;
22070;SDS011;11200;51.488;6.668;2022-10-17T13:23:32;5.22;;;4.40;;
22070;SDS011;11200;51.488;6.668;2022-10-17T13:28:34;5.18;;;4.30;;
22070;SDS011;11200;51.488;6.668;2022-10-17T13:31:00;6.05;;;4.20;;
22070;SDS011;11200;51.488;6.668;2022-10-17T13:33:39;5.55;;;4.28;;
22070;SDS011;11200;51.488;6.668;2022-10-17T13:36:06;4.47;;;3.92;;
22070;SDS011;11200;51.488;6.668;2022-10-17T13:38:39;4.45;;;4.00;;
22070;SDS011;11200;51.488;6.668;2022-10-17T13:41:12;4.45;;;3.92;;
22070;SDS011;11200;51.488;6.668;2022-10-17T13:43:40;4.47;;;4.07;;
22070;SDS011;11200;51.488;6.668;2022-10-17T13:46:06;5.80;;;4.00;;
22070;SDS011;11200;51.488;6.668;2022-10-17T13:48:38;4.53;;;4.05;;
22070;SDS011;11200;51.488;6.668;2022-10-17T13:51:07;4.25;;;3.67;;
22070;SDS011;11200;51.488;6.668;2022-10-17T13:53:38;4.60;;;3.72;;
22070;SDS011;11200;51.488;6.668;2022-10-17T13:58:47;5.30;;;4.18;;
22070;SDS011;11200;51.488;6.668;2022-10-17T14:01:14;5.65;;;3.95;;
22070;SDS011;11200;51.488;6.668;2022-10-17T14:03:42;6.50;;;3.85;;
22070;SDS011;11200;51.488;6.668;2022-10-17T14:08:48;5.68;;;4.25;;
22070;SDS011;11200;51.488;6.668;2022-10-17T14:11:19;4.43;;;3.60;;
22070;SDS011;11200;51.488;6.668;2022-10-17T14:14:04;6.15;;;4.10;;
22070;SDS011;11200;51.488;6.668;2022-10-17T14:16:41;4.38;;;3.70;;
22070;SDS011;11200;51.488;6.668;2022-10-17T14:19:15;4.20;;;3.80;;
22070;SDS011;11200;51.488;6.668;2022-10-17T14:22:22;5.55;;;3.72;;
22070;SDS011;11200;51.488;6.668;2022-10-17T14:24:52;4.88;;;3.88;;
22070;SDS011;11200;51.488;6.668;2022-10-17T14:27:31;5.55;;;3.95;;
22070;SDS011;11200;51.488;6.668;2022-10-17T14:30:30;6.43;;;3.80;;
22070;SDS011;11200;51.488;6.668;2022-10-17T14:33:01;4.18;;;3.78;;
22070;SDS011;11200;51.488;6.668;2022-10-17T14:35:31;6.15;;;3.83;;
22070;SDS011;11200;51.488;6.668;2022-10-17T14:38:02;4.45;;;3.95;;
22070;SDS011;11200;51.488;6.668;2022-10-17T14:40:30;5.28;;;3.53;;
22070;SDS011;11200;51.488;6.668;2022-10-17T14:42:57;4.03;;;3.63;;
22070;SDS011;11200;51.488;6.668;2022-10-17T14:45:32;4.28;;;3.60;;
22070;SDS011;11200;51.488;6.668;2022-10-17T14:50:31;5.18;;;3.70;;
22070;SDS011;11200;51.488;6.668;2022-10-17T14:53:19;4.22;;;3.60;;
22070;SDS011;11200;51.488;6.668;2022-10-17T14:55:55;4.00;;;3.40;;
22070;SDS011;11200;51.488;6.668;2022-10-17T14:58:24;3.95;;;3.50;;
22070;SDS011;11200;51.488;6.668;2022-10-17T15:00:54;4.30;;;3.47;;
22070;SDS011;11200;51.488;6.668;2022-10-17T15:03:21;4.60;;;3.70;;
22070;SDS011;11200;51.488;6.668;2022-10-17T15:05:48;4.40;;;3.75;;
22070;SDS011;11200;51.488;6.668;2022-10-17T15:08:15;4.85;;;3.90;;
22070;SDS011;11200;51.488;6.668;2022-10-17T15:10:46;5.28;;;3.60;;
22070;SDS011;11200;51.488;6.668;2022-10-17T15:13:13;5.03;;;3.50;;
22070;SDS011;11200;51.488;6.668;2022-10-17T15:15:39;5.55;;;3.50;;
22070;SDS011;11200;51.488;6.668;2022-10-17T15:18:06;4.80;;;3.70;;
22070;SDS011;11200;51.488;6.668;2022-10-17T15:20:34;4.55;;;3.70;;
22070;SDS011;11200;51.488;6.668;2022-10-17T15:23:00;3.97;;;3.53;;
22070;SDS011;11200;51.488;6.668;2022-10-17T15:25:26;4.47;;;3.58;;
22070;SDS011;11200;51.488;6.668;2022-10-17T15:27:53;5.15;;;3.70;;
22070;SDS011;11200;51.488;6.668;2022-10-17T15:30:30;4.85;;;3.40;;
22070;SDS011;11200;51.488;6.668;2022-10-17T15:32:59;5.63;;;3.72;;
22070;SDS011;11200;51.488;6.668;2022-10-17T15:35:25;3.90;;;3.42;;
22070;SDS011;11200;51.488;6.668;2022-10-17T15:37:56;4.30;;;3.55;;
22070;SDS011;11200;51.488;6.668;2022-10-17T15:40:29;3.60;;;3.30;;
22070;SDS011;11200;51.488;6.668;2022-10-17T15:42:55;5.80;;;3.58;;
22070;SDS011;11200;51.488;6.668;2022-10-17T15:45:21;6.82;;;3.67;;
22070;SDS011;11200;51.488;6.668;2022-10-17T15:47:51;4.63;;;3.50;;
22070;SDS011;11200;51.488;6.668;2022-10-17T15:50:19;4.80;;;3.30;;
22070;SDS011;11200;51.488;6.668;2022-10-17T15:52:46;3.83;;;3.40;;
22070;SDS011;11200;51.488;6.668;2022-10-17T15:55:18;4.20;;;3.33;;
22070;SDS011;11200;51.488;6.668;2022-10-17T15:57:44;4.35;;;3.58;;
22070;SDS011;11200;51.488;6.668;2022-10-17T16:00:29;4.40;;;3.10;;
22070;SDS011;11200;51.488;6.668;2022-10-17T16:02:54;4.05;;;3.40;;
22070;SDS011;11200;51.488;6.668;2022-10-17T16:05:21;4.75;;;3.20;;
22070;SDS011;11200;51.488;6.668;2022-10-17T16:07:49;3.50;;;3.00;;
22070;SDS011;11200;51.488;6.668;2022-10-17T16:10:16;4.22;;;3.30;;
22070;SDS011;11200;51.488;6.668;2022-10-17T16:12:42;4.47;;;3.47;;
22070;SDS011;11200;51.488;6.668;2022-10-17T16:15:17;4.03;;;3.63;;
22070;SDS011;11200;51.488;6.668;2022-10-17T16:17:51;5.47;;;3.45;;
22070;SDS011;11200;51.488;6.668;2022-10-17T16:20:18;4.95;;;3.35;;
22070;SDS011;11200;51.488;6.668;2022-10-17T16:22:44;4.38;;;3.72;;
22070;SDS011;11200;51.488;6.668;2022-10-17T16:25:18;4.15;;;3.40;;
22070;SDS011;11200;51.488;6.668;2022-10-17T16:27:46;3.40;;;3.10;;
22070;SDS011;11200;51.488;6.668;2022-10-17T16:30:14;3.78;;;3.40;;
22070;SDS011;11200;51.488;6.668;2022-10-17T16:32:43;4.38;;;3.65;;
22070;SDS011;11200;51.488;6.668;2022-10-17T16:35:19;4.82;;;3.45;;
22070;SDS011;11200;51.488;6.668;2022-10-17T16:37:50;3.85;;;3.45;;
22070;SDS011;11200;51.488;6.668;2022-10-17T16:40:17;4.63;;;3.42;;
22070;SDS011;11200;51.488;6.668;2022-10-17T16:42:43;3.75;;;3.45;;
22070;SDS011;11200;51.488;6.668;2022-10-17T16:45:13;4.57;;;3.42;;
22070;SDS011;11200;51.488;6.668;2022-10-17T16:48:05;5.10;;;3.60;;
22070;SDS011;11200;51.488;6.668;2022-10-17T16:50:37;4.55;;;3.70;;
22070;SDS011;11200;51.488;6.668;2022-10-17T16:53:03;5.90;;;3.65;;
22070;SDS011;11200;51.488;6.668;2022-10-17T16:55:28;4.95;;;3.60;;
22070;SDS011;11200;51.488;6.668;2022-10-17T16:57:54;3.92;;;3.40;;
22070;SDS011;11200;51.488;6.668;2022-10-17T17:00:20;3.63;;;3.33;;
22070;SDS011;11200;51.488;6.668;2022-10-17T17:02:46;3.83;;;3.42;;
22070;SDS011;11200;51.488;6.668;2022-10-17T17:05:12;6.40;;;3.88;;
22070;SDS011;11200;51.488;6.668;2022-10-17T17:07:37;4.45;;;3.15;;
22070;SDS011;11200;51.488;6.668;2022-10-17T17:10:03;3.83;;;3.42;;